Time;durP1;ratioP1;P1;durP2;ratioP2;P2;SDS_P1;SDS_P2;PMS_P1;PMS_P2;Temp;Humidity;BMP_temperature;BMP_pressure;BME280_temperature;BME280_humidity;BME280_pressure;Samples;Min_cycle;Max_cycle;Signal;HPM_P1;HPM_P2
2021/10/07 00:02:04;;;;;;;;;;;16.70;99.90;;;;;;5033211;28;20033;-79
2021/10/07 00:04:30;;;;;;;9.15;1.80;;;16.70;99.90;;;;;;5032543;28;19936;-78
2021/10/07 00:06:56;;;;;;;12.00;2.38;;;16.80;99.90;;;;;;5034441;28;20021;-79
2021/10/07 00:09:22;;;;;;;;;;;16.50;99.90;;;;;;5034399;28;20025;-79
2021/10/07 00:11:48;;;;;;;8.68;2.33;;;16.50;99.90;;;;;;5032592;28;19912;-78
2021/10/07 00:14:14;;;;;;;;;;;16.50;99.90;;;;;;5033786;28;20516;-79
2021/10/07 00:16:39;;;;;;;8.13;1.95;;;16.70;99.90;;;;;;5034152;28;19944;-79
2021/10/07 00:19:05;;;;;;;;;;;16.40;99.90;;;;;;5034684;28;20110;-79
2021/10/07 00:21:31;;;;;;;10.68;2.10;;;16.20;99.90;;;;;;5033328;28;19912;-79
2021/10/07 00:26:23;;;;;;;13.00;2.50;;;16.00;99.90;;;;;;5034962;28;20021;-79
2021/10/07 00:28:48;;;;;;;10.18;1.95;;;15.90;99.90;;;;;;5016030;28;20045;-79
2021/10/07 00:31:21;;;;;;;;;;;16.10;99.90;;;;;;5034711;28;20509;-79
2021/10/07 00:36:34;;;;;;;9.68;1.83;;;15.90;99.90;;;;;;5034363;28;20033;-79
2021/10/07 00:39:03;;;;;;;12.38;2.33;;;15.90;99.90;;;;;;5029389;28;20402;-79
2021/10/07 00:41:33;;;;;;;13.32;1.92;;;16.00;99.90;;;;;;5014604;28;20034;-79
2021/10/07 00:44:06;;;;;;;10.57;1.65;;;16.00;99.90;;;;;;5014327;28;20466;-78
2021/10/07 00:46:55;;;;;;;8.55;2.05;;;15.90;99.90;;;;;;5013316;28;20037;-79
2021/10/07 00:49:22;;;;;;;8.25;1.60;;;16.10;99.90;;;;;;5027692;28;20436;-79
2021/10/07 00:51:48;;;;;;;9.52;1.70;;;16.30;99.90;;;;;;5032714;28;20030;-78
2021/10/07 00:54:17;;;;;;;10.57;1.95;;;16.50;99.90;;;;;;5033574;28;20025;-79
2021/10/07 00:56:44;;;;;;;14.82;2.10;;;16.40;99.90;;;;;;5031909;28;20467;-78
2021/10/07 00:59:10;;;;;;;9.48;1.90;;;16.50;99.90;;;;;;5033657;28;20032;-78
2021/10/07 01:01:36;;;;;;;12.40;1.95;;;16.50;99.90;;;;;;5032740;28;20025;-79
2021/10/07 01:04:02;;;;;;;13.63;1.85;;;16.20;99.90;;;;;;5032788;28;20083;-78
2021/10/07 01:06:29;;;;;;;10.50;2.03;;;15.90;99.90;;;;;;5032608;28;20025;-79
2021/10/07 01:08:55;;;;;;;14.50;2.20;;;15.50;99.90;;;;;;5033012;28;20021;-79
2021/10/07 01:11:20;;;;;;;;;;;15.30;99.90;;;;;;5034245;28;20029;-78
2021/10/07 01:13:46;;;;;;;12.52;2.03;;;15.40;99.90;;;;;;5033763;28;19970;-78
2021/10/07 01:16:12;;;;;;;15.02;2.20;;;15.30;99.90;;;;;;5032498;28;20030;-78
2021/10/07 01:18:38;;;;;;;;;;;15.30;99.90;;;;;;5033015;28;20032;-79
2021/10/07 01:21:03;;;;;;;8.50;1.70;;;15.20;99.90;;;;;;5032892;28;20329;-78
2021/10/07 01:23:29;;;;;;;12.35;1.90;;;15.30;99.90;;;;;;5033321;28;20026;-79
2021/10/07 01:25:55;;;;;;;13.30;2.40;;;15.30;99.90;;;;;;5032020;28;20079;-79
2021/10/07 01:28:21;;;;;;;11.77;2.33;;;15.30;99.90;;;;;;5014146;28;20049;-79
2021/10/07 01:30:47;;;;;;;5.82;1.63;;;15.30;99.90;;;;;;5033016;28;20069;-79
2021/10/07 01:33:12;;;;;;;;;;;15.40;99.90;;;;;;5032297;28;20036;-78
2021/10/07 01:35:38;;;;;;;12.63;2.13;;;15.40;99.90;;;;;;5031918;28;19933;-79
2021/10/07 01:38:04;;;;;;;9.30;1.60;;;15.40;99.90;;;;;;5031505;28;20032;-79
2021/10/07 01:40:30;;;;;;;8.05;1.60;;;15.30;99.90;;;;;;5033097;28;20061;-78
2021/10/07 01:42:56;;;;;;;6.82;1.60;;;15.30;99.90;;;;;;5031657;28;20545;-78
2021/10/07 01:45:22;;;;;;;;;;;15.30;99.90;;;;;;5033058;28;20104;-78
2021/10/07 01:47:49;;;;;;;13.35;1.85;;;15.40;99.90;;;;;;5031679;28;19905;-78
2021/10/07 01:50:16;;;;;;;10.10;1.73;;;15.50;99.90;;;;;;5032359;28;20568;-79
2021/10/07 01:52:42;;;;;;;9.63;1.73;;;15.30;99.90;;;;;;5032941;28;20028;-78
2021/10/07 01:55:09;;;;;;;9.18;1.67;;;15.30;99.90;;;;;;5031557;28;20036;-79
2021/10/07 01:57:36;;;;;;;11.50;2.47;;;15.20;99.90;;;;;;5032802;28;20053;-79
2021/10/07 02:00:06;;;;;;;8.80;1.80;;;15.20;99.90;;;;;;5032343;28;20021;-79
2021/10/07 02:02:32;;;;;;;7.47;1.55;;;15.30;99.90;;;;;;5032723;28;20059;-79
2021/10/07 02:04:58;;;;;;;;;;;15.40;99.90;;;;;;5032271;28;20075;-79
2021/10/07 02:07:24;;;;;;;10.63;1.95;;;15.50;99.90;;;;;;5031364;28;19909;-78
2021/10/07 02:09:50;;;;;;;16.35;2.35;;;15.40;99.90;;;;;;5032250;28;20029;-78
2021/10/07 02:12:15;;;;;;;;;;;15.20;99.90;;;;;;5033162;28;20029;-77
2021/10/07 02:14:41;;;;;;;12.40;1.88;;;15.10;99.90;;;;;;5032380;28;19971;-79
2021/10/07 02:17:07;;;;;;;;;;;15.10;99.90;;;;;;5033161;28;20072;-79
2021/10/07 02:19:32;;;;;;;8.38;1.88;;;15.10;99.90;;;;;;5032344;28;20365;-79
2021/10/07 02:21:59;;;;;;;7.97;1.70;;;15.10;99.90;;;;;;5031321;28;20486;-78
2021/10/07 02:24:25;;;;;;;8.48;1.67;;;15.10;99.90;;;;;;5032396;28;20026;-79
2021/10/07 02:26:51;;;;;;;13.65;2.05;;;15.30;99.90;;;;;;5032583;28;20474;-78
2021/10/07 02:29:17;;;;;;;;;;;15.60;99.90;;;;;;5009313;28;20034;-78
2021/10/07 02:31:43;;;;;;;7.35;1.33;;;15.90;99.90;;;;;;5011034;28;20005;-79
2021/10/07 02:34:09;;;;;;;9.57;1.90;;;15.90;99.90;;;;;;5011566;28;20111;-78
2021/10/07 02:36:34;;;;;;;7.20;1.63;;;15.90;99.90;;;;;;5012655;28;20026;-78
2021/10/07 02:39:00;;;;;;;10.20;1.83;;;15.90;99.90;;;;;;5035207;28;20037;-79
2021/10/07 02:41:26;;;;;;;;;;;15.80;99.90;;;;;;5031552;28;20026;-78
2021/10/07 02:43:52;;;;;;;15.02;1.88;;;15.90;99.90;;;;;;5030924;28;19909;-79
2021/10/07 02:46:18;;;;;;;9.63;1.90;;;15.90;99.90;;;;;;5031098;28;20028;-79
2021/10/07 02:48:44;;;;;;;;;;;15.90;99.90;;;;;;5027842;28;20022;-78
2021/10/07 02:51:10;;;;;;;7.97;1.60;;;16.00;99.90;;;;;;5012654;28;19948;-78
2021/10/07 02:53:37;;;;;;;;;;;15.80;99.90;;;;;;5013049;28;20032;-78
2021/10/07 02:56:04;;;;;;;7.30;1.60;;;15.80;99.90;;;;;;5012362;28;20401;-79
2021/10/07 02:58:30;;;;;;;10.32;1.92;;;15.50;99.90;;;;;;5013735;28;20038;-78
2021/10/07 03:00:56;;;;;;;;;;;15.20;99.90;;;;;;5032694;28;20393;-79
2021/10/07 03:03:21;;;;;;;8.32;1.60;;;15.00;99.90;;;;;;5032249;28;19996;-79
2021/10/07 03:05:48;;;;;;;11.45;2.25;;;15.00;99.90;;;;;;5030862;28;20018;-79
2021/10/07 03:08:13;;;;;;;10.60;1.90;;;15.50;99.90;;;;;;5030639;28;20405;-78
2021/10/07 03:10:39;;;;;;;;;;;15.80;99.90;;;;;;5032559;28;20022;-79
2021/10/07 03:13:05;;;;;;;9.23;1.80;;;15.90;99.90;;;;;;5032216;28;19905;-78
2021/10/07 03:15:30;;;;;;;;;;;15.90;99.90;;;;;;5033046;28;20083;-79
2021/10/07 03:17:56;;;;;;;8.18;1.77;;;15.90;99.90;;;;;;5035785;28;19905;-78
2021/10/07 03:20:22;;;;;;;;;;;15.90;99.90;;;;;;5034721;28;20029;-79
2021/10/07 03:22:48;;;;;;;12.23;2.00;;;15.70;99.90;;;;;;5035665;28;19905;-78
2021/10/07 03:25:14;;;;;;;14.13;2.15;;;15.40;99.90;;;;;;5035681;28;20091;-78
2021/10/07 03:27:40;;;;;;;7.28;1.65;;;15.20;99.90;;;;;;5035528;28;20025;-78
2021/10/07 03:30:06;;;;;;;;;;;15.10;99.90;;;;;;5016721;28;20056;-79
2021/10/07 03:32:32;;;;;;;12.55;2.00;;;15.20;99.90;;;;;;5035231;28;19912;-78
2021/10/07 03:34:57;;;;;;;;;;;15.30;99.90;;;;;;5035894;28;20026;-79
2021/10/07 03:37:23;;;;;;;13.18;2.40;;;15.40;99.90;;;;;;5034253;28;19905;-79
2021/10/07 03:39:49;;;;;;;14.30;2.05;;;15.30;99.90;;;;;;5035018;28;20100;-79
2021/10/07 03:42:15;;;;;;;11.35;2.20;;;15.10;99.90;;;;;;5035197;28;20442;-79
2021/10/07 03:44:41;;;;;;;;;;;15.10;99.90;;;;;;5035305;28;20035;-78
2021/10/07 03:47:08;;;;;;;14.80;1.88;;;15.30;99.90;;;;;;5033977;28;19999;-79
2021/10/07 03:49:34;;;;;;;12.23;1.98;;;15.40;99.90;;;;;;5034750;28;20025;-78
2021/10/07 03:52:00;;;;;;;15.05;2.13;;;15.30;99.90;;;;;;5035109;28;20108;-78
2021/10/07 03:54:25;;;;;;;;;;;15.20;99.90;;;;;;5034304;28;20060;-79
2021/10/07 03:56:51;;;;;;;13.75;2.22;;;15.20;99.90;;;;;;5034750;28;20291;-79
2021/10/07 03:59:17;;;;;;;;;;;15.20;99.90;;;;;;5035025;28;20025;-79
2021/10/07 04:01:43;;;;;;;14.65;2.25;;;15.20;99.90;;;;;;5034946;28;20011;-79
2021/10/07 04:04:08;;;;;;;10.63;2.35;;;15.30;99.90;;;;;;5033537;28;20026;-78
2021/10/07 04:06:34;;;;;;;14.25;2.10;;;15.40;99.90;;;;;;5035001;28;20436;-78
2021/10/07 04:09:00;;;;;;;8.63;1.95;;;15.40;99.90;;;;;;5034502;28;20101;-79
2021/10/07 04:11:26;;;;;;;17.20;2.72;;;15.30;99.90;;;;;;5035058;28;20100;-79
2021/10/07 04:13:52;;;;;;;;;;;15.20;99.90;;;;;;5033707;28;20397;-78
2021/10/07 04:16:17;;;;;;;9.32;1.90;;;15.20;99.90;;;;;;5034768;28;20087;-78
2021/10/07 04:18:44;;;;;;;;;;;15.00;99.90;;;;;;5034853;28;20026;-79
2021/10/07 04:21:10;;;;;;;10.90;1.85;;;14.90;99.90;;;;;;5034709;28;19905;-78
2021/10/07 04:23:38;;;;;;;12.48;2.17;;;14.90;99.90;;;;;;5034601;28;20017;-78
2021/10/07 04:26:06;;;;;;;11.65;2.08;;;14.80;99.90;;;;;;5034318;28;20482;-78
2021/10/07 04:28:33;;;;;;;11.23;2.05;;;14.80;99.90;;;;;;5033259;28;20434;-78
2021/10/07 04:30:59;;;;;;;11.50;2.30;;;14.70;99.90;;;;;;5015240;28;20045;-78
2021/10/07 04:33:24;;;;;;;15.38;2.40;;;14.60;99.90;;;;;;5034352;28;20037;-78
2021/10/07 04:35:50;;;;;;;12.15;2.28;;;14.50;99.90;;;;;;5034369;28;20071;-79
2021/10/07 04:38:16;;;;;;;11.40;2.30;;;14.50;99.90;;;;;;5032937;28;20041;-78
2021/10/07 04:40:42;;;;;;;10.05;2.03;;;14.40;99.90;;;;;;5033873;28;20030;-78
2021/10/07 04:43:07;;;;;;;11.02;2.35;;;14.40;99.90;;;;;;5034097;28;20060;-78
2021/10/07 04:45:33;;;;;;;10.73;2.10;;;14.40;99.90;;;;;;5034095;28;20080;-78
2021/10/07 04:47:59;;;;;;;11.60;2.30;;;14.40;99.90;;;;;;5034093;28;20072;-79
2021/10/07 04:50:25;;;;;;;10.48;2.45;;;14.30;99.90;;;;;;5033604;28;20075;-79
2021/10/07 04:52:51;;;;;;;10.18;2.58;;;14.40;99.90;;;;;;5033997;28;20057;-78
2021/10/07 04:55:17;;;;;;;11.75;2.42;;;14.40;99.90;;;;;;5033906;28;20037;-78
2021/10/07 04:57:42;;;;;;;;;;;14.40;99.90;;;;;;5034589;28;20033;-78
2021/10/07 05:00:09;;;;;;;14.73;2.50;;;14.50;99.90;;;;;;5032093;28;19905;-78
2021/10/07 05:02:39;;;;;;;12.77;2.22;;;14.50;99.90;;;;;;5033800;28;20041;-79
2021/10/07 05:05:06;;;;;;;11.57;2.20;;;14.60;99.90;;;;;;5032384;28;20110;-78
2021/10/07 05:07:32;;;;;;;14.30;2.63;;;14.50;99.90;;;;;;5033506;28;20017;-78
2021/10/07 05:09:58;;;;;;;12.05;2.58;;;14.60;99.90;;;;;;5031808;28;20374;-79
2021/10/07 05:12:24;;;;;;;11.93;2.58;;;14.70;99.90;;;;;;5033639;28;20026;-78
2021/10/07 05:14:49;;;;;;;13.00;2.00;;;14.60;99.90;;;;;;5033501;28;20026;-78
2021/10/07 05:17:16;;;;;;;13.13;2.40;;;14.50;99.90;;;;;;5032147;28;20035;-78
2021/10/07 05:19:41;;;;;;;;;;;14.50;99.90;;;;;;5033573;28;20086;-79
2021/10/07 05:22:07;;;;;;;10.57;2.55;;;14.70;99.90;;;;;;5033434;28;19909;-78
2021/10/07 05:24:33;;;;;;;10.73;2.33;;;14.60;99.90;;;;;;5032096;28;20072;-78
2021/10/07 05:26:59;;;;;;;12.43;2.80;;;14.60;99.90;;;;;;5033449;28;20079;-78
2021/10/07 05:29:24;;;;;;;10.90;2.20;;;14.80;99.90;;;;;;5014175;28;20048;-78
2021/10/07 05:31:50;;;;;;;14.50;2.75;;;14.70;99.90;;;;;;5031613;28;20060;-78
2021/10/07 05:34:16;;;;;;;11.55;2.17;;;14.70;99.90;;;;;;5033188;28;20028;-78
2021/10/07 05:36:43;;;;;;;14.73;2.75;;;14.80;99.90;;;;;;5033231;28;20048;-78
2021/10/07 05:39:09;;;;;;;15.07;2.05;;;14.80;99.90;;;;;;5032663;28;20100;-79
2021/10/07 05:41:35;;;;;;;;;;;14.90;99.90;;;;;;5032513;28;20026;-79
2021/10/07 05:44:01;;;;;;;18.85;3.08;;;15.00;99.90;;;;;;5032898;28;19913;-79
2021/10/07 05:46:26;;;;;;;16.60;2.60;;;15.10;99.90;;;;;;5033003;28;20390;-79
2021/10/07 05:48:52;;;;;;;11.75;2.13;;;15.10;99.90;;;;;;5032844;28;20500;-78
2021/10/07 05:51:18;;;;;;;13.00;2.22;;;15.10;99.90;;;;;;5032988;28;20445;-79
2021/10/07 05:53:44;;;;;;;21.08;2.35;;;15.10;99.90;;;;;;5031646;28;20061;-78
2021/10/07 05:56:10;;;;;;;;;;;15.10;99.90;;;;;;5033088;28;20037;-78
2021/10/07 05:58:35;;;;;;;23.38;2.85;;;15.00;99.90;;;;;;5032676;28;20274;-79
2021/10/07 06:01:01;;;;;;;21.45;2.90;;;14.90;99.90;;;;;;5032311;28;20026;-78
2021/10/07 06:03:27;;;;;;;17.58;3.40;;;14.90;99.90;;;;;;5032663;28;20022;-78
2021/10/07 06:05:52;;;;;;;;;;;15.00;99.90;;;;;;5033298;28;20456;-79
2021/10/07 06:08:18;;;;;;;9.68;2.10;;;15.10;99.90;;;;;;5032568;28;19935;-78
2021/10/07 06:10:44;;;;;;;69.65;5.25;;;15.30;99.90;;;;;;5032242;28;20044;-79
2021/10/07 06:13:09;;;;;;;30.95;3.13;;;15.40;99.90;;;;;;5032715;28;20448;-79
2021/10/07 06:15:35;;;;;;;20.95;3.13;;;15.20;99.90;;;;;;5032725;28;20390;-79
2021/10/07 06:18:01;;;;;;;20.65;2.97;;;15.00;99.90;;;;;;5032798;28;20489;-78
2021/10/07 06:20:34;;;;;;;19.35;2.83;;;15.00;99.90;;;;;;5030906;28;20025;-79
2021/10/07 06:23:03;;;;;;;16.25;2.70;;;15.10;99.90;;;;;;5032735;28;20036;-79
2021/10/07 06:25:30;;;;;;;16.92;3.28;;;15.10;99.90;;;;;;5032453;28;20021;-78
2021/10/07 06:27:56;;;;;;;17.50;3.38;;;15.10;99.90;;;;;;5032463;28;20547;-78
2021/10/07 06:30:22;;;;;;;;;;;15.00;99.90;;;;;;5013641;28;20037;-78
2021/10/07 06:32:49;;;;;;;;;;;14.90;99.90;;;;;;5032714;28;19983;-78
2021/10/07 06:35:16;;;;;;;16.00;3.10;;;14.90;99.90;;;;;;5032465;28;19944;-78
2021/10/07 06:37:42;;;;;;;10.77;2.53;;;14.80;99.90;;;;;;5032304;28;20296;-79
2021/10/07 06:40:08;;;;;;;;;;;14.80;99.90;;;;;;5032631;28;20026;-78
2021/10/07 06:42:35;;;;;;;21.67;3.22;;;14.90;99.90;;;;;;5032413;28;19909;-79
2021/10/07 06:45:04;;;;;;;16.10;2.63;;;14.80;99.90;;;;;;5032066;28;20033;-79
2021/10/07 06:47:30;;;;;;;14.20;2.83;;;14.90;99.90;;;;;;5031084;28;20021;-79
2021/10/07 06:49:56;;;;;;;;;;;15.00;99.90;;;;;;5032492;28;20450;-79
2021/10/07 06:52:22;;;;;;;12.73;2.60;;;15.00;99.90;;;;;;5035876;28;20292;-78
2021/10/07 06:54:47;;;;;;;;;;;15.20;99.90;;;;;;5036591;28;20100;-79
2021/10/07 06:57:13;;;;;;;14.23;2.83;;;15.30;99.90;;;;;;5051608;28;19912;-79
2021/10/07 06:59:39;;;;;;;;;;;15.50;99.90;;;;;;5034915;28;20030;-79
2021/10/07 07:02:05;;;;;;;14.10;2.40;;;15.80;99.90;;;;;;5036236;28;20360;-79
2021/10/07 07:04:31;;;;;;;11.00;2.30;;;15.80;99.90;;;;;;5035944;28;20033;-78
2021/10/07 07:06:56;;;;;;;;;;;15.60;99.90;;;;;;5036439;28;20405;-79
2021/10/07 07:09:22;;;;;;;13.63;2.33;;;15.50;99.90;;;;;;5035733;28;19905;-79
2021/10/07 07:11:48;;;;;;;;;;;15.60;99.90;;;;;;5034987;28;20021;-79
2021/10/07 07:14:13;;;;;;;15.27;3.10;;;15.60;99.90;;;;;;5035758;28;19905;-78
2021/10/07 07:16:39;;;;;;;15.50;3.15;;;15.40;99.90;;;;;;5035788;28;20029;-79
2021/10/07 07:19:05;;;;;;;14.60;3.03;;;15.40;99.90;;;;;;5035657;28;20026;-79
2021/10/07 07:21:33;;;;;;;;;;;15.50;99.90;;;;;;5035696;28;20167;-78
2021/10/07 07:24:00;;;;;;;13.43;2.60;;;15.60;99.90;;;;;;5034296;28;19905;-78
2021/10/07 07:26:28;;;;;;;11.45;2.83;;;15.60;99.90;;;;;;5034322;28;20029;-78
2021/10/07 07:28:53;;;;;;;12.32;2.50;;;15.90;99.90;;;;;;5034134;28;20108;-79
2021/10/07 07:31:19;;;;;;;;;;;16.10;99.90;;;;;;5016899;28;20153;-78
2021/10/07 07:33:48;;;;;;;14.38;2.67;;;16.00;99.90;;;;;;5035477;28;19912;-78
2021/10/07 07:36:15;;;;;;;13.40;2.80;;;16.30;99.90;;;;;;5034226;28;20079;-78
2021/10/07 07:38:44;;;;;;;13.85;2.83;;;16.60;99.90;;;;;;5035187;28;20071;-79
2021/10/07 07:41:12;;;;;;;12.55;2.67;;;16.70;99.90;;;;;;5034942;28;20103;-79
2021/10/07 07:43:38;;;;;;;14.13;2.85;;;16.80;99.90;;;;;;5035260;28;20028;-79
2021/10/07 07:46:04;;;;;;;12.65;3.00;;;16.60;99.90;;;;;;5035192;28;20026;-79
2021/10/07 07:48:31;;;;;;;12.15;2.60;;;17.30;99.90;;;;;;5035312;28;20025;-79
2021/10/07 07:50:57;;;;;;;12.75;2.92;;;17.80;99.90;;;;;;5034801;28;20036;-79
2021/10/07 07:53:22;;;;;;;14.10;3.03;;;17.80;99.90;;;;;;5035227;28;20360;-79
2021/10/07 07:55:48;;;;;;;16.98;3.30;;;17.60;99.90;;;;;;5035051;28;20493;-79
2021/10/07 07:58:16;;;;;;;;;;;17.40;99.90;;;;;;5035499;28;20033;-79
2021/10/07 08:00:42;;;;;;;18.23;3.20;;;17.60;99.90;;;;;;5034488;28;19906;-79
2021/10/07 08:03:08;;;;;;;11.70;3.10;;;17.50;99.90;;;;;;5034794;28;20029;-79
2021/10/07 08:05:34;;;;;;;15.32;2.88;;;17.60;99.90;;;;;;5034912;28;20025;-79
2021/10/07 08:08:00;;;;;;;13.90;3.08;;;18.10;99.90;;;;;;5034635;28;20371;-79
2021/10/07 08:10:26;;;;;;;14.20;2.83;;;18.30;99.90;;;;;;5034507;28;20028;-79
2021/10/07 08:12:51;;;;;;;15.27;3.80;;;18.00;99.90;;;;;;5034736;28;20079;-79
2021/10/07 08:15:18;;;;;;;14.68;3.00;;;17.60;99.90;;;;;;5034474;28;20490;-79
2021/10/07 08:17:44;;;;;;;14.60;2.67;;;17.30;99.90;;;;;;5033467;28;20049;-79
2021/10/07 08:20:12;;;;;;;15.18;2.97;;;17.50;99.90;;;;;;5032981;28;20061;-78
2021/10/07 08:22:38;;;;;;;13.00;2.63;;;17.40;99.90;;;;;;5034733;28;20056;-79
2021/10/07 08:25:05;;;;;;;12.75;3.00;;;17.50;99.90;;;;;;5034544;28;20026;-79
2021/10/07 08:27:31;;;;;;;10.35;2.20;;;17.60;99.90;;;;;;5034552;28;20402;-79
2021/10/07 08:29:56;;;;;;;11.60;2.72;;;18.00;99.90;;;;;;5013434;28;20041;-78
2021/10/07 08:32:22;;;;;;;;;;;17.90;99.90;;;;;;5033289;28;20026;-79
2021/10/07 08:34:48;;;;;;;12.15;2.72;;;17.80;99.90;;;;;;5034419;28;19905;-79
2021/10/07 08:37:14;;;;;;;;;;;17.90;99.90;;;;;;5034640;28;20082;-79
2021/10/07 08:39:39;;;;;;;15.10;2.45;;;18.10;99.90;;;;;;5034231;28;19956;-79
2021/10/07 08:42:06;;;;;;;10.13;2.28;;;18.50;99.90;;;;;;5034201;28;20026;-79
2021/10/07 08:44:32;;;;;;;7.70;2.30;;;19.00;99.90;;;;;;5033898;28;20087;-79
2021/10/07 08:46:58;;;;;;;13.18;2.58;;;19.00;99.90;;;;;;5032871;28;20041;-80
2021/10/07 08:49:27;;;;;;;9.43;2.33;;;18.50;99.90;;;;;;5034085;28;20030;-80
2021/10/07 08:51:54;;;;;;;13.32;2.55;;;18.70;99.90;;;;;;5033473;28;20017;-79
2021/10/07 08:54:20;;;;;;;9.90;2.47;;;18.40;99.90;;;;;;5033908;28;20029;-79
2021/10/07 08:56:47;;;;;;;9.00;2.33;;;18.20;99.90;;;;;;5033577;28;20104;-79
2021/10/07 08:59:18;;;;;;;9.13;1.92;;;18.70;99.90;;;;;;5032537;28;20476;-79
2021/10/07 09:01:50;;;;;;;8.40;2.13;;;18.80;99.90;;;;;;5032159;28;20540;-79
2021/10/07 09:04:25;;;;;;;13.02;2.55;;;19.00;99.90;;;;;;5033758;28;20033;-79
2021/10/07 09:06:51;;;;;;;8.97;2.10;;;18.90;99.90;;;;;;5033884;28;20045;-79
2021/10/07 09:09:17;;;;;;;10.98;2.13;;;18.70;99.90;;;;;;5032724;28;20072;-79
2021/10/07 09:11:55;;;;;;;9.15;2.20;;;18.40;99.90;;;;;;5032225;28;20025;-79
2021/10/07 09:14:31;;;;;;;8.45;2.13;;;18.10;99.90;;;;;;5031597;28;20033;-79
2021/10/07 09:16:58;;;;;;;6.85;2.00;;;18.60;99.90;;;;;;5033747;28;20036;-79
2021/10/07 09:19:25;;;;;;;10.52;2.30;;;18.70;99.90;;;;;;5033402;28;20026;-79
2021/10/07 09:21:57;;;;;;;8.68;2.00;;;18.60;99.90;;;;;;5033023;28;20025;-79
2021/10/07 09:24:34;;;;;;;6.55;2.00;;;18.60;99.90;;;;;;5033428;28;20026;-79
2021/10/07 09:27:09;;;;;;;8.75;1.85;;;19.00;99.90;;;;;;5033357;28;20049;-79
2021/10/07 09:29:51;;;;;;;6.50;1.70;;;18.90;99.90;;;;;;5033179;28;20018;-80
2021/10/07 09:32:32;;;;;;;8.70;1.90;;;19.10;99.90;;;;;;5051469;28;20049;-79
2021/10/07 09:35:00;;;;;;;6.72;1.50;;;19.20;99.90;;;;;;5053153;28;20036;-79
2021/10/07 09:37:33;;;;;;;3.78;1.48;;;19.40;99.90;;;;;;5053003;28;20486;-79
2021/10/07 09:40:10;;;;;;;7.38;1.83;;;19.00;99.90;;;;;;5052702;28;20017;-80
2021/10/07 09:42:38;;;;;;;7.22;1.83;;;19.40;99.90;;;;;;5053013;28;20024;-79
2021/10/07 09:45:06;;;;;;;5.45;1.75;;;19.70;99.90;;;;;;5052551;28;20021;-80
2021/10/07 09:47:35;;;;;;;5.65;1.70;;;20.20;99.90;;;;;;5052919;28;20028;-79
2021/10/07 09:50:15;;;;;;;5.88;1.70;;;19.90;99.90;;;;;;5052595;28;20020;-79
2021/10/07 09:52:42;;;;;;;6.13;1.77;;;20.60;99.90;;;;;;5052945;28;20029;-80
2021/10/07 09:55:17;;;;;;;10.00;1.77;;;20.50;99.90;;;;;;5052770;28;20493;-80
2021/10/07 09:57:55;;;;;;;4.80;1.40;;;20.80;99.90;;;;;;5052813;28;20036;-79
2021/10/07 10:00:22;;;;;;;9.80;1.77;;;20.90;99.90;;;;;;5050882;28;20859;-80
2021/10/07 10:02:48;;;;;;;5.80;1.70;;;20.70;99.90;;;;;;5052720;28;20025;-80
2021/10/07 10:05:14;;;;;;;7.13;1.58;;;20.10;99.90;;;;;;5051291;28;20036;-80
2021/10/07 10:07:42;;;;;;;4.82;1.73;;;20.10;99.90;;;;;;5052470;28;20074;-80
2021/10/07 10:10:09;;;;;;;6.65;1.60;;;19.90;99.90;;;;;;5052375;28;20036;-80
2021/10/07 10:12:35;;;;;;;4.13;1.48;;;20.40;99.90;;;;;;5052436;28;20505;-79
2021/10/07 10:15:03;;;;;;;5.38;1.45;;;20.70;99.90;;;;;;5052454;28;20048;-80
2021/10/07 10:17:29;;;;;;;6.78;1.60;;;21.00;99.90;;;;;;5052443;28;20025;-79
2021/10/07 10:19:56;;;;;;;5.85;1.60;;;21.00;99.90;;;;;;5051110;28;20029;-79
2021/10/07 10:22:23;;;;;;;6.68;1.70;;;20.70;99.90;;;;;;5052343;28;20108;-79
2021/10/07 10:24:50;;;;;;;5.78;1.60;;;20.50;99.90;;;;;;5052415;28;20036;-79
2021/10/07 10:27:16;;;;;;;4.72;1.38;;;20.50;99.90;;;;;;5055976;28;20489;-80
2021/10/07 10:29:43;;;;;;;8.75;1.50;;;21.20;99.90;;;;;;5056293;28;20043;-79
2021/10/07 10:32:12;;;;;;;4.30;1.45;;;22.50;99.90;;;;;;5032257;28;20044;-80
2021/10/07 10:34:46;;;;;;;2.97;1.23;;;24.40;99.90;;;;;;5055275;28;20052;-80
2021/10/07 10:37:14;;;;;;;24.35;2.58;;;22.90;99.90;;;;;;5056552;28;20033;-80
2021/10/07 10:39:45;;;;;;;2.30;0.80;;;22.30;99.90;;;;;;5055227;28;20668;-80
2021/10/07 10:42:17;;;;;;;5.63;0.90;;;21.80;99.90;;;;;;5055850;28;20083;-80
2021/10/07 10:44:49;;;;;;;5.07;0.98;;;21.30;99.90;;;;;;5054713;28;20049;-80
2021/10/07 10:47:25;;;;;;;1.95;0.90;;;21.00;99.90;;;;;;5054942;28;20041;-79
2021/10/07 10:49:50;;;;;;;3.97;1.20;;;21.40;99.90;;;;;;5054792;28;20079;-79
2021/10/07 10:52:29;;;;;;;2.47;0.90;;;21.30;99.90;;;;;;5055770;28;20070;-79
2021/10/07 10:54:58;;;;;;;2.22;1.00;;;21.70;99.90;;;;;;5054676;28;20033;-80
2021/10/07 10:57:35;;;;;;;5.53;1.42;;;21.70;99.90;;;;;;5056148;28;20059;-79
2021/10/07 11:00:22;;;;;;;3.03;1.05;;;20.90;99.90;;;;;;5055808;28;20029;-79
2021/10/07 11:02:51;;;;;;;7.68;1.40;;;21.10;99.90;;;;;;5055987;28;20049;-80
2021/10/07 11:05:25;;;;;;;2.63;0.98;;;21.00;99.90;;;;;;5055917;28;20124;-79
2021/10/07 11:08:18;;;;;;;3.42;1.10;;;20.70;99.90;;;;;;5054443;28;20025;-79
2021/10/07 11:10:52;;;;;;;2.70;0.82;;;20.50;99.90;;;;;;5054122;28;20128;-80
2021/10/07 11:13:24;;;;;;;3.13;1.00;;;20.50;99.90;;;;;;5054460;28;20033;-79
2021/10/07 11:15:59;;;;;;;2.88;1.10;;;20.30;99.90;;;;;;5055753;28;20028;-80
2021/10/07 11:18:32;;;;;;;3.05;0.98;;;20.70;99.90;;;;;;5055833;28;20106;-79
2021/10/07 11:21:00;;;;;;;3.90;0.80;;;20.40;99.90;;;;;;5053823;28;20035;-80
2021/10/07 11:23:29;;;;;;;4.25;1.20;;;20.20;99.90;;;;;;5055644;28;20436;-79
2021/10/07 11:25:56;;;;;;;2.40;1.00;;;20.10;99.90;;;;;;5055517;28;20021;-79
2021/10/07 11:28:40;;;;;;;1.65;0.80;;;20.60;99.90;;;;;;5055477;28;20043;-80
2021/10/07 11:31:13;;;;;;;1.90;0.85;;;20.80;99.90;;;;;;5030238;28;20056;-80
2021/10/07 11:33:42;;;;;;;3.30;0.90;;;21.10;99.90;;;;;;5053917;28;20468;-79
2021/10/07 11:36:10;;;;;;;2.17;0.90;;;20.90;99.90;;;;;;5055146;28;20078;-79
2021/10/07 11:38:38;;;;;;;5.82;1.17;;;20.90;99.90;;;;;;5055179;28;20024;-80
2021/10/07 11:41:04;;;;;;;1.45;0.98;;;21.00;99.90;;;;;;5053753;28;20111;-80
2021/10/07 11:43:32;;;;;;;3.97;0.95;;;21.30;99.90;;;;;;5055124;28;20108;-80
2021/10/07 11:46:04;;;;;;;2.42;0.95;;;21.10;99.90;;;;;;5055124;28;20068;-80
2021/10/07 11:48:31;;;;;;;3.17;1.00;;;20.80;99.90;;;;;;5055281;28;20013;-79
2021/10/07 11:50:59;;;;;;;2.38;0.70;;;21.30;99.90;;;;;;5054809;28;20401;-79
2021/10/07 11:53:32;;;;;;;2.63;1.00;;;21.80;99.90;;;;;;5053925;28;20025;-80
2021/10/07 11:56:02;;;;;;;11.82;1.88;;;21.70;99.90;;;;;;5054919;28;20021;-79
2021/10/07 11:58:29;;;;;;;11.10;1.50;;;21.30;99.90;;;;;;5053663;28;20065;-79
2021/10/07 12:00:57;;;;;;;5.00;1.27;;;21.60;99.90;;;;;;5053396;28;20028;-79
2021/10/07 12:03:26;;;;;;;3.17;1.00;;;21.80;99.90;;;;;;5053687;28;20078;-79
2021/10/07 12:05:57;;;;;;;55.63;3.97;;;21.70;99.90;;;;;;5053430;28;20346;-80
2021/10/07 12:08:26;;;;;;;3.83;1.25;;;21.00;99.90;;;;;;5053234;28;20550;-80
2021/10/07 12:10:56;;;;;;;3.63;1.33;;;20.90;99.90;;;;;;5054429;28;20021;-79
2021/10/07 12:13:23;;;;;;;3.10;1.27;;;20.90;99.90;;;;;;5053236;28;20036;-79
2021/10/07 12:15:58;;;;;;;1.52;1.08;;;20.80;99.90;;;;;;5053346;28;20159;-79
2021/10/07 12:18:25;;;;;;;3.33;1.53;;;21.30;99.90;;;;;;5053256;28;20029;-79
2021/10/07 12:21:18;;;;;;;8.23;1.67;;;20.80;99.90;;;;;;5052783;28;20402;-79
2021/10/07 12:23:59;;;;;;;16.48;2.38;;;21.30;99.90;;;;;;5053527;28;20115;-79
2021/10/07 12:26:33;;;;;;;7.40;2.35;;;21.30;99.90;;;;;;5054757;28;20052;-79
2021/10/07 12:29:01;;;;;;;9.48;2.00;;;21.20;99.90;;;;;;5054296;28;20029;-79
2021/10/07 12:31:29;;;;;;;8.90;1.90;;;21.00;99.90;;;;;;5029868;28;20049;-79
2021/10/07 12:33:58;;;;;;;5.65;1.70;;;21.00;99.90;;;;;;5054348;28;20465;-79
2021/10/07 12:36:33;;;;;;;13.95;1.83;;;20.40;99.90;;;;;;5054175;28;20017;-79
2021/10/07 12:38:58;;;;;;;13.02;2.40;;;20.70;99.90;;;;;;5054228;28;20017;-79
2021/10/07 12:41:32;;;;;;;10.25;1.50;;;20.90;99.90;;;;;;5053831;28;20385;-80
2021/10/07 12:43:59;;;;;;;6.35;1.60;;;20.70;99.90;;;;;;5053921;28;20500;-79
2021/10/07 12:46:26;;;;;;;3.65;1.40;;;20.30;99.90;;;;;;5052915;28;20395;-80
2021/10/07 12:48:59;;;;;;;3.80;1.20;;;20.40;99.90;;;;;;5053222;28;20025;-79
2021/10/07 12:51:28;;;;;;;3.30;1.65;;;20.20;99.90;;;;;;5053969;28;20021;-79
2021/10/07 12:53:54;;;;;;;3.92;1.50;;;20.40;99.90;;;;;;5052800;28;20025;-79
2021/10/07 12:56:26;;;;;;;6.78;1.52;;;20.50;99.90;;;;;;5052485;28;20032;-79
2021/10/07 12:58:57;;;;;;;12.32;1.95;;;20.50;99.90;;;;;;5052329;28;20072;-79
2021/10/07 13:01:25;;;;;;;5.45;1.58;;;20.70;99.90;;;;;;5053484;28;20108;-79